27 de maio de 2022

Hora Código Clima Temp. Visibilidade Tecto Vento METAR/SPECI
10:20 da manhã
V
59 °F 6¼ mi+ 3.200 ft 270° 270° 14 kt METAR ETND 270820Z 27014KT 9999 BKN032 15/07 Q1017 BLU
9:20 da manhã
V
57 °F 6¼ mi+ - 270° 270° 11 - 21 kt METAR ETND 270720Z 27011G21KT 9999 SCT019 SCT230 14/08 Q1017 BLU+
8:20 da manhã
V
55 °F 6¼ mi+ 23.000 ft 270° 270° 6 kt METAR ETND 270620Z 27006KT 9999 FEW013 SCT055 BKN230 13/11 Q1017 BLU+
7:20 da manhã
V
55 °F 6¼ mi+ 23.000 ft 260° 260° 8 kt METAR ETND 270520Z 26008KT 9999 FEW013 SCT080 BKN230 13/11 Q1017 BLU+
6:20 da manhã
V
54 °F 6¼ mi+ 23.000 ft 270° 270° 8 kt METAR ETND 270420Z 27008KT 9999 FEW009 SCT080 BKN230 12/11 Q1017 BLU+
Dados mais antigos

Baixe nosso aplicativo

Fácil acesso a todas as condições meteorológicas da aviação no seu celular e no seu tablet.
Com muitas características não disponíveis no site, como suporte offline e uma lista pessoal de aeroportos.

Nós e terceiros acompanhamos seu comportamento na internet em nosso site com cookies. Se você continuar, nós assumimos que você concorda com nossa política de cookies. Saiba mais